createdAt,value
2024-01-03T00:01:31.906Z,97720.56
2024-01-03T00:03:58.926Z,97727.13
2024-01-03T00:06:30.456Z,97731.94
2024-01-03T00:08:58.010Z,97735.31
2024-01-03T00:11:28.761Z,97736.44
2024-01-03T00:13:55.476Z,97737.72
2024-01-03T00:16:23.498Z,97740.03
2024-01-03T00:18:56.211Z,97722.56
2024-01-03T00:21:27.495Z,97732.84
2024-01-03T00:24:04.323Z,97735.09
2024-01-03T00:26:31.607Z,97742.63
2024-01-03T00:28:58.767Z,97747.78
2024-01-03T00:31:42.384Z,97742.63
2024-01-03T00:34:25.045Z,97744.19
2024-01-03T00:36:52.490Z,97758.84
2024-01-03T00:39:24.742Z,97775.41
2024-01-03T00:41:51.632Z,97741.84
2024-01-03T00:44:18.334Z,97752.06
2024-01-03T00:46:45.332Z,97748.19
2024-01-03T00:49:15.814Z,97756.75
2024-01-03T00:51:47.205Z,97756.59
2024-01-03T00:54:14.282Z,97759.69
2024-01-03T00:56:41.346Z,97770.72
2024-01-03T00:59:08.319Z,97759.06
2024-01-03T01:01:35.059Z,97750.22
2024-01-03T01:04:01.968Z,97770.44
2024-01-03T01:06:29.812Z,97770.00
2024-01-03T01:08:57.401Z,97753.59
2024-01-03T01:11:24.129Z,97761.84
2024-01-03T01:13:50.799Z,97760.78
2024-01-03T01:16:17.458Z,97764.50
2024-01-03T01:18:44.300Z,97753.38
2024-01-03T01:21:11.078Z,97768.97
2024-01-03T01:23:39.787Z,97773.47
2024-01-03T01:26:06.416Z,97759.50
2024-01-03T01:28:33.120Z,97760.16
2024-01-03T01:30:59.789Z,97764.47
2024-01-03T01:33:26.673Z,97764.03
2024-01-03T01:35:54.301Z,97764.53
2024-01-03T01:38:21.083Z,97764.47
2024-01-03T01:40:50.835Z,97761.38
2024-01-03T01:43:17.731Z,97775.09
2024-01-03T01:45:45.192Z,97765.75
2024-01-03T01:48:12.788Z,97756.91
2024-01-03T01:50:40.131Z,97771.16
2024-01-03T01:53:08.017Z,97772.63
2024-01-03T01:55:36.210Z,97769.66
2024-01-03T01:58:03.014Z,97773.03
2024-01-03T02:00:29.721Z,97777.47
2024-01-03T02:02:56.612Z,97780.09
2024-01-03T02:05:23.614Z,97778.81
2024-01-03T02:07:50.623Z,97785.19
2024-01-03T02:10:17.359Z,97779.25
2024-01-03T02:12:44.128Z,97789.44
2024-01-03T02:15:10.860Z,97776.00
2024-01-03T02:17:39.525Z,97783.06
2024-01-03T02:20:06.471Z,97786.28
2024-01-03T02:22:33.258Z,97786.78
2024-01-03T02:25:01.246Z,97777.47
2024-01-03T02:27:28.051Z,97780.91
2024-01-03T02:29:54.824Z,97780.38
2024-01-03T02:32:21.577Z,97786.94
2024-01-03T02:34:48.265Z,97776.38
2024-01-03T02:37:15.174Z,97772.50
2024-01-03T02:39:41.903Z,97783.53
2024-01-03T02:42:08.671Z,97767.09
2024-01-03T02:44:35.432Z,97774.97
2024-01-03T02:47:02.165Z,97763.88
2024-01-03T02:49:28.969Z,97771.34
2024-01-03T02:51:55.717Z,97773.81
2024-01-03T02:54:22.399Z,97770.91
2024-01-03T02:56:50.679Z,97766.47
2024-01-03T02:59:17.419Z,97756.97
2024-01-03T03:01:44.405Z,97757.75
2024-01-03T03:04:11.144Z,97763.16
2024-01-03T03:06:37.827Z,97773.50
2024-01-03T03:09:13.429Z,97765.75
2024-01-03T03:11:43.860Z,97770.25
2024-01-03T03:14:11.629Z,97759.66
2024-01-03T03:16:38.818Z,97768.25
2024-01-03T03:19:06.944Z,97774.78
2024-01-03T03:21:34.221Z,97802.25
2024-01-03T03:24:01.959Z,97789.00
2024-01-03T03:26:28.861Z,97769.53
2024-01-03T03:28:55.536Z,97772.41
2024-01-03T03:31:22.203Z,97761.75
2024-01-03T03:33:49.377Z,97763.41
2024-01-03T03:36:16.308Z,97775.28
2024-01-03T03:38:43.163Z,97760.63
2024-01-03T03:41:11.802Z,97744.03
2024-01-03T03:43:40.218Z,97758.19
2024-01-03T03:46:07.253Z,97751.31
2024-01-03T03:48:34.470Z,97749.84
2024-01-03T03:51:01.752Z,97755.88
2024-01-03T03:53:28.501Z,97752.16
2024-01-03T03:55:55.233Z,97768.25
2024-01-03T03:58:21.917Z,97766.22
2024-01-03T04:00:48.624Z,97773.63
2024-01-03T04:03:15.492Z,97772.28
2024-01-03T04:05:42.376Z,97774.00
2024-01-03T04:08:09.449Z,97773.97
2024-01-03T04:10:36.528Z,97782.06
2024-01-03T04:13:03.187Z,97777.69
2024-01-03T04:15:30.972Z,97775.50
2024-01-03T04:17:58.061Z,97784.16
2024-01-03T04:20:24.881Z,97784.94
2024-01-03T04:22:51.701Z,97788.34
2024-01-03T04:25:18.547Z,97800.91
2024-01-03T04:27:45.225Z,97789.53
2024-01-03T04:30:12.142Z,97784.09
2024-01-03T04:32:39.309Z,97782.38
2024-01-03T04:35:06.448Z,97790.16
2024-01-03T04:37:34.585Z,97783.84
2024-01-03T04:40:01.498Z,97785.28
2024-01-03T04:42:28.232Z,97802.34
2024-01-03T04:44:55.106Z,97785.97
2024-01-03T04:47:22.019Z,97787.19
2024-01-03T04:49:48.923Z,97799.75
2024-01-03T04:52:15.607Z,97808.06
2024-01-03T04:54:42.361Z,97807.16
2024-01-03T04:57:09.196Z,97809.28
2024-01-03T04:59:36.680Z,97805.22
2024-01-03T05:02:03.663Z,97807.63
2024-01-03T05:04:30.350Z,97809.59
2024-01-03T05:06:57.503Z,97811.19
2024-01-03T05:09:24.850Z,97817.47
2024-01-03T05:11:51.831Z,97811.53
2024-01-03T05:14:18.779Z,97819.66
2024-01-03T05:16:45.544Z,97809.72
2024-01-03T05:19:12.582Z,97825.41
2024-01-03T05:21:39.509Z,97832.31
2024-01-03T05:24:06.509Z,97820.72
2024-01-03T05:26:33.403Z,97827.25
2024-01-03T05:29:00.197Z,97825.59
2024-01-03T05:31:26.894Z,97825.56
2024-01-03T05:33:53.734Z,97840.75
2024-01-03T05:36:20.596Z,97820.41
2024-01-03T05:38:47.344Z,97825.59
2024-01-03T05:41:14.080Z,97823.06
2024-01-03T05:43:40.758Z,97836.00
2024-01-03T05:46:07.447Z,97835.06
2024-01-03T05:48:34.528Z,97827.34
2024-01-03T05:51:01.536Z,97853.69
2024-01-03T05:53:28.313Z,97842.69
2024-01-03T05:55:55.024Z,97846.25
2024-01-03T05:58:21.734Z,97828.91
2024-01-03T06:00:48.521Z,97840.19
2024-01-03T06:03:15.289Z,97842.03
2024-01-03T06:05:42.366Z,97841.44
2024-01-03T06:08:10.242Z,97848.75
2024-01-03T06:10:37.012Z,97845.03
2024-01-03T06:13:03.816Z,97852.28
2024-01-03T06:15:30.522Z,97844.81
2024-01-03T06:17:57.438Z,97859.19
2024-01-03T06:20:24.668Z,97869.94
2024-01-03T06:22:51.553Z,97875.22
2024-01-03T06:25:18.215Z,97864.25
2024-01-03T06:27:45.546Z,97862.59
2024-01-03T06:30:12.718Z,97868.13
2024-01-03T06:32:39.797Z,97868.84
2024-01-03T06:35:07.110Z,97881.53
2024-01-03T06:37:33.789Z,97882.31
2024-01-03T06:40:00.574Z,97882.44
2024-01-03T06:42:27.443Z,97887.88
2024-01-03T06:44:55.049Z,97876.06
2024-01-03T06:47:21.987Z,97888.97
2024-01-03T06:49:48.831Z,97889.41
2024-01-03T06:52:15.663Z,97891.47
2024-01-03T06:54:42.408Z,97894.75
2024-01-03T06:57:09.219Z,97896.59
2024-01-03T06:59:37.155Z,97906.75
2024-01-03T07:02:04.161Z,97898.03
2024-01-03T07:04:30.928Z,97907.00
2024-01-03T07:06:58.425Z,97892.81
2024-01-03T07:09:25.139Z,97900.13
2024-01-03T07:11:51.991Z,97898.44
2024-01-03T07:14:18.866Z,97910.78
2024-01-03T07:16:48.286Z,97903.38
2024-01-03T07:19:16.654Z,97901.97
2024-01-03T07:21:43.439Z,97896.69
2024-01-03T07:24:11.685Z,97907.00
2024-01-03T07:26:38.446Z,97907.94
2024-01-03T07:29:05.130Z,97900.75
2024-01-03T07:31:31.843Z,97904.41
2024-01-03T07:33:58.717Z,97915.88
2024-01-03T07:36:25.713Z,97909.97
2024-01-03T07:38:52.548Z,97916.69
2024-01-03T07:41:20.688Z,97912.88
2024-01-03T07:43:47.420Z,97910.34
2024-01-03T07:46:17.306Z,97925.88
2024-01-03T07:48:44.385Z,97925.22
2024-01-03T07:51:18.281Z,97928.38
2024-01-03T07:53:45.006Z,97926.31
2024-01-03T07:56:11.862Z,97928.56
2024-01-03T07:58:38.623Z,97928.81
2024-01-03T08:01:05.451Z,97928.13
2024-01-03T08:03:32.180Z,97936.03
2024-01-03T08:06:01.070Z,97929.22
2024-01-03T08:08:29.609Z,97931.59
2024-01-03T08:10:56.291Z,97929.31
2024-01-03T08:13:23.372Z,97941.25
2024-01-03T08:15:50.032Z,97948.28
2024-01-03T08:18:17.147Z,97951.88
2024-01-03T08:20:44.314Z,97941.53
2024-01-03T08:23:11.222Z,97946.06
2024-01-03T08:25:39.062Z,97950.44
2024-01-03T08:28:06.169Z,97951.22
2024-01-03T08:30:32.996Z,97951.16
2024-01-03T08:33:00.851Z,97951.75
2024-01-03T08:35:27.879Z,97953.81
2024-01-03T08:37:54.754Z,97951.06
2024-01-03T08:40:22.467Z,97954.00
2024-01-03T08:42:49.401Z,97958.84
2024-01-03T08:45:16.188Z,97950.53
2024-01-03T08:47:43.054Z,97954.94
2024-01-03T08:50:10.202Z,97956.03
2024-01-03T08:52:37.233Z,97946.66
2024-01-03T08:55:04.056Z,97954.25
2024-01-03T08:57:31.959Z,97960.06
2024-01-03T08:59:58.784Z,97950.00
2024-01-03T09:02:25.622Z,97950.53
2024-01-03T09:04:52.726Z,97951.03
2024-01-03T09:07:19.482Z,97947.03
2024-01-03T09:09:46.294Z,97951.16
2024-01-03T09:12:13.052Z,97957.88
2024-01-03T09:14:41.124Z,97957.72
2024-01-03T09:17:07.880Z,97952.97
2024-01-03T09:19:34.570Z,97958.38
2024-01-03T09:22:02.490Z,97964.84
2024-01-03T09:24:31.118Z,97962.25
2024-01-03T09:26:58.961Z,97971.72
2024-01-03T09:29:25.995Z,97975.28
2024-01-03T09:31:52.857Z,97969.16
2024-01-03T09:34:19.613Z,97983.81
2024-01-03T09:36:46.544Z,97992.22
2024-01-03T09:39:14.078Z,97999.78
2024-01-03T09:41:41.233Z,98004.84
2024-01-03T09:44:09.946Z,98005.31
2024-01-03T09:46:36.721Z,98009.16
2024-01-03T09:49:04.630Z,98013.50
2024-01-03T09:51:32.088Z,98015.09
2024-01-03T09:54:00.569Z,98003.81
2024-01-03T09:56:27.835Z,98000.91
2024-01-03T09:58:54.625Z,98000.69
2024-01-03T10:01:21.549Z,97996.78
2024-01-03T10:03:48.276Z,97990.56
2024-01-03T10:06:18.768Z,97994.63
2024-01-03T10:09:01.106Z,97999.63
2024-01-03T10:11:28.361Z,97988.50
2024-01-03T10:13:56.082Z,98000.88
2024-01-03T10:16:26.376Z,97989.53
2024-01-03T10:19:13.612Z,97992.81
2024-01-03T10:21:47.569Z,98002.03
2024-01-03T10:24:14.510Z,97994.88
2024-01-03T10:26:41.316Z,97991.22
2024-01-03T10:29:11.945Z,97991.50
2024-01-03T10:31:38.705Z,97990.03
2024-01-03T10:34:10.337Z,97990.50
2024-01-03T10:36:38.891Z,97998.25
2024-01-03T10:39:05.850Z,98002.47
2024-01-03T10:41:33.775Z,97998.47
2024-01-03T10:44:01.952Z,98011.47
2024-01-03T10:46:29.527Z,98008.38
2024-01-03T10:48:56.996Z,97999.47
2024-01-03T10:51:25.234Z,98003.28
2024-01-03T10:53:59.972Z,97994.78
2024-01-03T10:56:26.958Z,97999.72
2024-01-03T10:58:55.099Z,98006.34
2024-01-03T11:04:00.309Z,97995.75
2024-01-03T11:06:45.550Z,98007.75
2024-01-03T11:09:12.370Z,98000.94
2024-01-03T11:11:39.717Z,98003.56
2024-01-03T11:14:18.322Z,97996.34
2024-01-03T11:16:45.258Z,97998.38
2024-01-03T11:19:12.682Z,98002.03
2024-01-03T11:21:40.440Z,98001.84
2024-01-03T11:24:22.473Z,98006.22
2024-01-03T11:26:55.209Z,98000.91
2024-01-03T11:29:38.802Z,98018.44
2024-01-03T11:32:06.801Z,98022.03
2024-01-03T11:34:36.848Z,98014.97
2024-01-03T11:37:04.606Z,98024.19
2024-01-03T11:39:38.328Z,98025.28
2024-01-03T11:42:07.644Z,98018.69
2024-01-03T11:44:35.588Z,98023.84
2024-01-03T11:47:06.276Z,98006.69
2024-01-03T11:49:33.289Z,98006.22
2024-01-03T11:52:00.681Z,98002.88
2024-01-03T11:54:27.973Z,98025.88
2024-01-03T11:56:57.810Z,98019.41
2024-01-03T11:59:24.838Z,98024.78
2024-01-03T12:02:00.447Z,98021.06
2024-01-03T12:04:27.483Z,98014.84
2024-01-03T12:06:57.647Z,98022.22
2024-01-03T12:09:25.753Z,98020.84
2024-01-03T12:11:52.507Z,98016.75
2024-01-03T12:14:19.257Z,98015.47
2024-01-03T12:16:47.482Z,98012.19
2024-01-03T12:19:27.862Z,98002.63
2024-01-03T12:21:55.761Z,98003.56
2024-01-03T12:24:22.525Z,98012.34
2024-01-03T12:26:50.035Z,98002.09
2024-01-03T12:29:16.877Z,98012.66
2024-01-03T12:31:43.658Z,98002.59
2024-01-03T12:34:10.843Z,97998.06
2024-01-03T12:36:37.720Z,98002.97
2024-01-03T12:39:04.905Z,98009.81
2024-01-03T12:41:31.809Z,97998.03
2024-01-03T12:43:58.600Z,97989.13
2024-01-03T12:46:25.293Z,98001.94
2024-01-03T12:48:52.357Z,98000.59
2024-01-03T12:51:21.602Z,97990.63
2024-01-03T12:53:52.119Z,97988.53
2024-01-03T12:56:19.902Z,97983.22
2024-01-03T12:58:46.855Z,97980.22
2024-01-03T13:01:13.573Z,97974.38
2024-01-03T13:03:40.469Z,97983.19
2024-01-03T13:06:07.610Z,97980.03
2024-01-03T13:08:35.087Z,97988.00
2024-01-03T13:11:01.841Z,97989.19
2024-01-03T13:13:28.541Z,98003.06
2024-01-03T13:15:55.179Z,97994.56
2024-01-03T13:18:22.040Z,97986.53
2024-01-03T13:20:49.215Z,98005.09
2024-01-03T13:23:16.086Z,98003.66
2024-01-03T13:25:42.775Z,97999.97
2024-01-03T13:28:09.509Z,98004.28
2024-01-03T13:30:36.679Z,98007.41
2024-01-03T13:33:06.598Z,98006.22
2024-01-03T13:35:34.007Z,98011.00
2024-01-03T13:38:00.803Z,98017.47
2024-01-03T13:40:29.151Z,98024.91
2024-01-03T13:42:55.798Z,98024.69
2024-01-03T13:45:22.517Z,98016.53
2024-01-03T13:47:50.844Z,98023.72
2024-01-03T13:50:17.605Z,98034.25
2024-01-03T13:52:44.854Z,98022.31
2024-01-03T13:55:11.622Z,98021.56
2024-01-03T13:57:38.300Z,98017.38
2024-01-03T14:00:10.748Z,98020.13
2024-01-03T14:02:37.933Z,98011.59
2024-01-03T14:05:05.498Z,98001.28
2024-01-03T14:07:32.287Z,98003.22
2024-01-03T14:09:59.048Z,98001.41
2024-01-03T14:12:25.838Z,98015.69
2024-01-03T14:14:52.599Z,97998.78
2024-01-03T14:17:20.377Z,98003.56
2024-01-03T14:19:47.202Z,98006.22
2024-01-03T14:22:20.744Z,97995.91
2024-01-03T14:24:47.522Z,98006.72
2024-01-03T14:27:14.329Z,98007.91
2024-01-03T14:29:41.148Z,98001.41
2024-01-03T14:32:13.421Z,98004.78
2024-01-03T14:34:41.341Z,98016.75
2024-01-03T14:37:08.852Z,98009.09
2024-01-03T14:39:43.070Z,97998.41
2024-01-03T14:42:19.327Z,98013.88
2024-01-03T14:44:52.373Z,98013.16
2024-01-03T14:47:21.380Z,98016.28
2024-01-03T14:49:48.692Z,98026.78
2024-01-03T14:52:15.644Z,98029.72
2024-01-03T14:54:43.164Z,98021.31
2024-01-03T14:57:10.885Z,98019.88
2024-01-03T14:59:41.169Z,98014.59
2024-01-03T15:02:13.390Z,98027.78
2024-01-03T15:04:40.314Z,98022.53
2024-01-03T15:07:07.080Z,98028.75
2024-01-03T15:09:41.789Z,98031.66
2024-01-03T15:12:08.764Z,98027.09
2024-01-03T15:14:40.381Z,98029.72
2024-01-03T15:17:07.249Z,98027.31
2024-01-03T15:19:33.963Z,98017.72
2024-01-03T15:22:17.353Z,98015.09
2024-01-03T15:24:47.497Z,98020.50
2024-01-03T15:27:15.303Z,98016.53
2024-01-03T15:29:42.844Z,98021.09
2024-01-03T15:32:10.294Z,98015.34
2024-01-03T15:34:40.234Z,98026.25
2024-01-03T15:37:11.554Z,98025.41
2024-01-03T15:39:39.194Z,98021.56
2024-01-03T15:42:11.614Z,98017.97
2024-01-03T15:44:40.345Z,98026.59
2024-01-03T15:47:07.356Z,98027.69
2024-01-03T15:49:40.775Z,98015.56
2024-01-03T15:52:10.702Z,98024.66
2024-01-03T15:54:46.710Z,98024.66
2024-01-03T15:57:18.058Z,98019.16
2024-01-03T15:59:45.882Z,98019.16
2024-01-03T16:02:13.214Z,98025.63
2024-01-03T16:04:42.931Z,98025.53
2024-01-03T16:07:09.746Z,98019.50
2024-01-03T16:09:38.776Z,98011.22
2024-01-03T16:12:08.961Z,98013.16
2024-01-03T16:14:37.003Z,98000.69
2024-01-03T16:17:05.046Z,98010.50
2024-01-03T16:19:32.164Z,98002.13
2024-01-03T16:21:59.021Z,98008.34
2024-01-03T16:24:25.745Z,97997.09
2024-01-03T16:27:08.293Z,98007.03
2024-01-03T16:29:42.940Z,98008.38
2024-01-03T16:32:13.985Z,98008.63
2024-01-03T16:34:41.041Z,98004.53
2024-01-03T16:37:13.305Z,98006.47
2024-01-03T16:39:43.974Z,98007.41
2024-01-03T16:42:11.137Z,98005.97
2024-01-03T16:44:38.520Z,98011.72
2024-01-03T16:47:05.544Z,98016.28
2024-01-03T16:49:34.553Z,98021.44
2024-01-03T16:52:01.420Z,98005.13
2024-01-03T16:54:30.861Z,98006.34
2024-01-03T16:56:57.814Z,98002.13
2024-01-03T16:59:25.197Z,98006.81
2024-01-03T17:01:53.910Z,98000.72
2024-01-03T17:04:21.356Z,98002.38
2024-01-03T17:09:28.773Z,98004.53
2024-01-03T17:11:55.501Z,97999.75
2024-01-03T17:17:03.852Z,98004.03
2024-01-03T17:19:31.540Z,97997.22
2024-01-03T17:22:01.218Z,97999.13
2024-01-03T17:24:32.503Z,97993.75
2024-01-03T17:27:08.949Z,97996.16
2024-01-03T17:29:35.797Z,97997.81
2024-01-03T17:32:05.177Z,98000.72
2024-01-03T17:34:32.083Z,98008.38
2024-01-03T17:37:01.372Z,97998.38
2024-01-03T17:39:28.111Z,97991.06
2024-01-03T17:41:55.945Z,97988.22
2024-01-03T17:44:30.050Z,98001.88
2024-01-03T17:46:57.219Z,97992.97
2024-01-03T17:49:24.227Z,97998.53
2024-01-03T17:51:51.198Z,98004.53
2024-01-03T17:54:17.995Z,97993.28
2024-01-03T17:56:47.970Z,97991.06
2024-01-03T17:59:16.612Z,97991.94
2024-01-03T18:01:52.273Z,97996.81
2024-01-03T18:04:21.865Z,98005.25
2024-01-03T18:06:48.691Z,97992.72
2024-01-03T18:09:16.384Z,97988.19
2024-01-03T18:11:46.256Z,97994.78
2024-01-03T18:14:15.450Z,97986.78
2024-01-03T18:16:42.246Z,98000.44
2024-01-03T18:19:09.223Z,97991.59
2024-01-03T18:21:36.073Z,97993.47
2024-01-03T18:24:08.552Z,98003.56
2024-01-03T18:26:38.590Z,97993.75
2024-01-03T18:29:13.906Z,97990.13
2024-01-03T18:31:41.696Z,97993.50
2024-01-03T18:34:13.913Z,97984.97
2024-01-03T18:36:40.899Z,97982.22
2024-01-03T18:39:14.491Z,97988.22
2024-01-03T18:41:41.412Z,97990.84
2024-01-03T18:44:10.359Z,97991.34
2024-01-03T18:46:37.152Z,97996.34
2024-01-03T18:49:05.805Z,97995.44
2024-01-03T18:51:35.172Z,97995.19
2024-01-03T18:54:02.538Z,97995.78
2024-01-03T18:56:29.382Z,97992.28
2024-01-03T18:59:01.486Z,98008.59
2024-01-03T19:01:29.330Z,98004.53
2024-01-03T19:03:56.145Z,97998.06
2024-01-03T19:06:23.158Z,98003.22
2024-01-03T19:08:53.067Z,98007.41
2024-01-03T19:11:19.817Z,98007.28
2024-01-03T19:13:55.198Z,98007.63
2024-01-03T19:16:22.127Z,98006.47
2024-01-03T19:18:49.076Z,97994.94
2024-01-03T19:21:16.304Z,98001.41
2024-01-03T19:23:51.225Z,98007.38
2024-01-03T19:26:18.057Z,98000.94
2024-01-03T19:28:45.213Z,98001.28
2024-01-03T19:31:16.143Z,98006.81
2024-01-03T19:33:43.067Z,98012.19
2024-01-03T19:36:10.024Z,98007.88
2024-01-03T19:38:36.902Z,98002.63
2024-01-03T19:41:03.745Z,98006.44
2024-01-03T19:43:30.593Z,98001.41
2024-01-03T19:45:57.399Z,98009.53
2024-01-03T19:48:24.336Z,98005.47
2024-01-03T19:50:51.369Z,98015.94
2024-01-03T19:53:18.182Z,98017.25
2024-01-03T19:55:45.705Z,98019.16
2024-01-03T19:58:12.824Z,98018.31
2024-01-03T20:00:39.723Z,98005.50
2024-01-03T20:03:07.750Z,98006.47
2024-01-03T20:05:36.873Z,98008.63
2024-01-03T20:08:06.475Z,98015.31
2024-01-03T20:10:33.170Z,98014.25
2024-01-03T20:13:00.056Z,98016.97
2024-01-03T20:15:27.238Z,98020.84
2024-01-03T20:17:54.182Z,98024.22
2024-01-03T20:20:24.773Z,98020.13
2024-01-03T20:22:54.770Z,98029.00
2024-01-03T20:25:21.612Z,98027.03
2024-01-03T20:27:57.251Z,98028.47
2024-01-03T20:30:24.227Z,98034.25
2024-01-03T20:32:51.202Z,98039.63
2024-01-03T20:35:20.270Z,98037.66
2024-01-03T20:37:47.188Z,98042.34
2024-01-03T20:40:14.201Z,98034.41
2024-01-03T20:42:44.406Z,98033.72
2024-01-03T20:45:12.045Z,98040.47
2024-01-03T20:47:39.128Z,98033.66
2024-01-03T20:50:06.202Z,98031.72
2024-01-03T20:52:33.267Z,98038.53
2024-01-03T20:55:00.401Z,98041.13
2024-01-03T20:57:29.300Z,98034.66
2024-01-03T20:59:56.241Z,98028.69
2024-01-03T21:02:28.423Z,98034.47
2024-01-03T21:04:55.299Z,98031.50
2024-01-03T21:07:22.043Z,98033.28
2024-01-03T21:09:48.824Z,98030.63
2024-01-03T21:12:15.595Z,98022.47
2024-01-03T21:14:42.419Z,98034.69
2024-01-03T21:17:09.107Z,98025.88
2024-01-03T21:19:38.520Z,98030.31
2024-01-03T21:22:05.556Z,98028.19
2024-01-03T21:24:32.525Z,98032.00
2024-01-03T21:27:02.380Z,98034.66
2024-01-03T21:29:31.403Z,98032.03
2024-01-03T21:31:58.818Z,98040.69
2024-01-03T21:34:26.276Z,98041.38
2024-01-03T21:36:53.031Z,98039.19
2024-01-03T21:39:19.844Z,98034.94
2024-01-03T21:41:47.163Z,98039.13
2024-01-03T21:44:14.074Z,98043.50
2024-01-03T21:46:42.990Z,98048.09
2024-01-03T21:49:09.893Z,98047.38
2024-01-03T21:51:43.419Z,98050.16
2024-01-03T21:54:10.378Z,98058.38
2024-01-03T21:56:38.966Z,98057.69
2024-01-03T21:59:06.016Z,98052.78
2024-01-03T22:01:32.724Z,98053.88
2024-01-03T22:03:59.608Z,98049.53
2024-01-03T22:06:26.427Z,98058.06
2024-01-03T22:08:56.335Z,98060.63
2024-01-03T22:11:25.372Z,98054.34
2024-01-03T22:13:52.229Z,98056.19
2024-01-03T22:16:19.049Z,98054.81
2024-01-03T22:18:53.494Z,98063.59
2024-01-03T22:21:22.811Z,98061.22
2024-01-03T22:23:54.888Z,98069.81
2024-01-03T22:26:21.975Z,98070.53
2024-01-03T22:28:48.697Z,98076.75
2024-01-03T22:31:15.602Z,98064.59
2024-01-03T22:33:42.465Z,98064.72
2024-01-03T22:36:12.214Z,98074.19
2024-01-03T22:38:39.021Z,98070.47
2024-01-03T22:41:05.861Z,98070.69
2024-01-03T22:43:33.755Z,98072.44
2024-01-03T22:46:00.560Z,98066.28
2024-01-03T22:48:31.118Z,98073.69
2024-01-03T22:50:58.765Z,98078.72
2024-01-03T22:53:25.486Z,98068.16
2024-01-03T22:55:54.225Z,98078.78
2024-01-03T22:58:20.933Z,98071.84
2024-01-03T23:00:47.817Z,98078.19
2024-01-03T23:03:14.623Z,98067.72
2024-01-03T23:05:43.881Z,98068.44
2024-01-03T23:08:10.648Z,98077.94
2024-01-03T23:10:38.434Z,98076.25
2024-01-03T23:13:09.365Z,98075.22
2024-01-03T23:15:44.094Z,98073.63
2024-01-03T23:18:23.635Z,98062.91
2024-01-03T23:20:50.727Z,98071.63
2024-01-03T23:23:18.667Z,98066.81
2024-01-03T23:25:45.468Z,98069.53
2024-01-03T23:28:12.233Z,98062.38
2024-01-03T23:30:39.039Z,98067.03
2024-01-03T23:33:08.893Z,98060.88
2024-01-03T23:35:35.877Z,98065.16
2024-01-03T23:38:05.761Z,98067.78
2024-01-03T23:40:32.519Z,98058.56
2024-01-03T23:42:59.217Z,98066.38
2024-01-03T23:45:27.551Z,98061.63
2024-01-03T23:47:54.603Z,98054.81
2024-01-03T23:50:21.537Z,98057.41
2024-01-03T23:52:48.350Z,98066.47
2024-01-03T23:55:16.055Z,98052.91
2024-01-03T23:57:42.734Z,98054.19
